Time;durP1;ratioP1;P1;durP2;ratioP2;P2;SDS_P1;SDS_P2;PMS_P1;PMS_P2;Temp;Humidity;BMP_temperature;BMP_pressure;BME280_temperature;BME280_humidity;BME280_pressure;Samples;Min_cycle;Max_cycle;Signal;HPM_P1;HPM_P2
2022/09/30 00:01:17;;;;;;;4.60;2.77;;;6.50;97.30;;;;;;5016444;28;20503;-92
2022/09/30 00:03:57;;;;;;;2.37;2.23;;;6.50;97.30;;;;;;5051602;28;20456;-90
2022/09/30 00:06:27;;;;;;;2.37;2.17;;;6.50;97.30;;;;;;5006220;28;20449;-92
2022/09/30 00:08:52;;;;;;;2.20;1.50;;;6.50;97.30;;;;;;5017129;28;20463;-91
2022/09/30 00:11:21;;;;;;;2.63;2.43;;;6.50;97.30;;;;;;5016308;28;20479;-91
2022/09/30 00:13:49;;;;;;;4.73;1.63;;;6.50;97.30;;;;;;5016192;28;20674;-90
2022/09/30 00:16:16;;;;;;;2.60;2.40;;;6.50;97.30;;;;;;5015309;28;20420;-90
2022/09/30 00:18:42;;;;;;;3.27;1.57;;;6.50;97.30;;;;;;5014288;28;20452;-90
2022/09/30 00:21:09;;;;;;;5.27;2.50;;;6.50;97.30;;;;;;5014798;28;20891;-89
2022/09/30 00:23:36;;;;;;;1.47;1.43;;;6.50;97.30;;;;;;5014537;28;20953;-90
2022/09/30 00:26:04;;;;;;;2.97;1.67;;;6.50;97.30;;;;;;5015159;28;20497;-90
2022/09/30 00:28:30;;;;;;;6.00;2.93;;;6.40;97.30;;;;;;5014864;28;20554;-90
2022/09/30 00:31:04;;;;;;;3.27;2.30;;;6.40;97.30;;;;;;5014586;28;20444;-90
2022/09/30 00:33:32;;;;;;;2.23;1.83;;;6.40;97.30;;;;;;5014418;28;20599;-90
2022/09/30 00:35:58;;;;;;;5.80;2.90;;;6.30;97.30;;;;;;5015267;28;20427;-90
2022/09/30 00:38:23;;;;;;;2.93;2.73;;;6.30;97.30;;;;;;5010124;28;20433;-90
2022/09/30 00:40:50;;;;;;;2.17;2.00;;;6.20;97.30;;;;;;5006013;28;20184;-89
2022/09/30 00:43:19;;;;;;;2.93;1.80;;;6.20;97.30;;;;;;5014809;28;20312;-90
2022/09/30 00:46:05;;;;;;;1.87;1.50;;;6.20;97.30;;;;;;5014526;28;20657;-90
2022/09/30 00:48:36;;;;;;;1.60;1.50;;;6.10;97.30;;;;;;5003309;28;20526;-90
2022/09/30 00:51:06;;;;;;;2.03;1.67;;;6.10;97.30;;;;;;5015168;28;20435;-90
2022/09/30 00:53:40;;;;;;;4.00;2.30;;;6.10;97.30;;;;;;5017916;28;20426;-90
2022/09/30 00:56:38;;;;;;;2.90;2.43;;;6.10;97.30;;;;;;5017083;28;20419;-93
2022/09/30 00:59:19;;;;;;;2.23;2.03;;;6.10;97.30;;;;;;5041404;28;20483;-94
2022/09/30 01:01:48;;;;;;;2.13;1.97;;;6.10;97.30;;;;;;5019085;28;20422;-91
2022/09/30 01:04:23;;;;;;;2.70;2.50;;;6.00;97.30;;;;;;5019325;28;20428;-92
2022/09/30 01:06:57;;;;;;;3.70;2.77;;;6.00;97.30;;;;;;5016367;28;20483;-91
2022/09/30 01:09:25;;;;;;;4.00;2.83;;;6.00;97.30;;;;;;5020105;28;20549;-91
2022/09/30 01:11:58;;;;;;;1.60;1.50;;;6.00;97.30;;;;;;5024328;28;20424;-92
2022/09/30 01:14:27;;;;;;;3.03;2.83;;;6.00;97.30;;;;;;5023661;28;20439;-91
2022/09/30 01:17:10;;;;;;;2.10;1.47;;;6.00;97.30;;;;;;5025843;28;20416;-90
2022/09/30 01:19:56;;;;;;;2.90;2.70;;;6.00;97.30;;;;;;5037720;28;20548;-91
2022/09/30 01:22:46;;;;;;;8.37;3.27;;;6.00;97.30;;;;;;5051136;28;20593;-92
2022/09/30 01:25:43;;;;;;;2.00;1.67;;;6.00;97.30;;;;;;5054042;28;20416;-91
2022/09/30 01:28:39;;;;;;;2.70;2.50;;;6.00;97.30;;;;;;5028271;28;20459;-91
2022/09/30 01:31:07;;;;;;;3.97;3.43;;;5.90;97.30;;;;;;5059853;28;20488;-91
2022/09/30 01:33:48;;;;;;;4.03;2.77;;;5.90;97.30;;;;;;5027941;28;20532;-91
2022/09/30 01:36:53;;;;;;;2.70;2.50;;;5.90;97.30;;;;;;5007899;28;20413;-92
2022/09/30 01:39:41;;;;;;;1.90;1.77;;;5.80;97.30;;;;;;5023341;28;20459;-91
2022/09/30 01:42:22;;;;;;;3.53;2.30;;;5.80;97.30;;;;;;5023858;28;20408;-91
2022/09/30 01:45:02;;;;;;;3.37;3.27;;;5.70;97.30;;;;;;5024479;28;20423;-91
2022/09/30 01:47:49;;;;;;;1.43;1.33;;;5.70;97.30;;;;;;5026221;28;20416;-91
2022/09/30 01:50:26;;;;;;;4.03;2.27;;;5.70;97.30;;;;;;5029523;28;20463;-93
2022/09/30 01:53:26;;;;;;;1.50;1.40;;;5.60;97.30;;;;;;5030443;28;20412;-89
2022/09/30 01:56:17;;;;;;;2.07;1.93;;;5.60;97.30;;;;;;5030283;28;20420;-90
2022/09/30 01:59:08;;;;;;;6.17;2.77;;;5.60;97.30;;;;;;5064658;28;20432;-92
2022/09/30 02:01:49;;;;;;;1.63;1.40;;;5.60;97.30;;;;;;5012615;28;20456;-91
2022/09/30 02:04:25;;;;;;;2.20;2.03;;;5.60;97.30;;;;;;5030044;28;20420;-91
2022/09/30 02:06:58;;;;;;;10.87;3.53;;;5.60;97.30;;;;;;5033638;28;20430;-92
2022/09/30 02:09:30;;;;;;;2.27;2.07;;;5.60;97.30;;;;;;5017968;28;20477;-92
2022/09/30 02:12:01;;;;;;;1.60;1.50;;;5.60;97.30;;;;;;5027702;28;20455;-92
2022/09/30 02:14:35;;;;;;;2.20;2.00;;;5.50;97.30;;;;;;5033902;28;20462;-92
2022/09/30 02:17:04;;;;;;;2.07;1.97;;;5.50;97.30;;;;;;5035538;28;20455;-91
2022/09/30 02:20:06;;;;;;;5.93;3.83;;;5.50;97.30;;;;;;5035301;28;20551;-91
2022/09/30 02:22:46;;;;;;;3.90;3.70;;;5.40;97.30;;;;;;5035555;28;20482;-91
2022/09/30 02:25:28;;;;;;;4.40;2.80;;;5.40;97.30;;;;;;5035725;28;20428;-92
2022/09/30 02:27:57;;;;;;;1.77;1.67;;;5.40;97.30;;;;;;5035478;28;20491;-92
2022/09/30 02:30:26;;;;;;;3.90;3.60;;;5.30;97.30;;;;;;5035387;28;20442;-91
2022/09/30 02:33:02;;;;;;;3.00;2.80;;;5.30;97.30;;;;;;5035969;28;20451;-92
2022/09/30 02:35:37;;;;;;;2.70;2.50;;;5.30;97.30;;;;;;5023816;28;20422;-93
2022/09/30 02:38:29;;;;;;;1.47;1.37;;;5.30;97.30;;;;;;5033382;28;20420;-92
2022/09/30 02:41:29;;;;;;;1.37;1.27;;;5.20;97.30;;;;;;5025472;28;20423;-91
2022/09/30 02:43:58;;;;;;;3.20;2.87;;;5.20;97.30;;;;;;5027188;28;20419;-92
2022/09/30 02:46:46;;;;;;;1.83;1.73;;;5.20;97.30;;;;;;5035178;28;20428;-92
2022/09/30 02:49:56;;;;;;;1.83;1.73;;;5.20;97.30;;;;;;5035284;28;20531;-93
2022/09/30 02:52:36;;;;;;;3.40;2.70;;;5.20;97.30;;;;;;4995868;28;20446;-92
2022/09/30 02:55:28;;;;;;;4.60;3.20;;;5.20;97.30;;;;;;4998484;28;20424;-91
2022/09/30 02:58:06;;;;;;;3.10;2.13;;;5.10;97.30;;;;;;5028609;28;20445;-91
2022/09/30 03:00:39;;;;;;;4.50;3.40;;;5.10;97.30;;;;;;5029498;28;20486;-92
2022/09/30 03:03:27;;;;;;;2.70;2.50;;;5.10;97.30;;;;;;5035516;28;20436;-92
2022/09/30 03:05:56;;;;;;;3.57;2.33;;;5.10;97.30;;;;;;5035060;28;20444;-93
2022/09/30 03:08:38;;;;;;;2.20;2.00;;;5.00;97.30;;;;;;5035285;28;20479;-91
2022/09/30 03:11:06;;;;;;;1.73;1.63;;;5.00;97.30;;;;;;5034834;28;20479;-92
2022/09/30 03:14:32;;;;;;;2.50;2.17;;;5.10;97.30;;;;;;5035050;28;20450;-92
2022/09/30 03:17:38;;;;;;;2.00;1.90;;;5.10;97.30;;;;;;5014494;28;20664;-91
2022/09/30 03:20:09;;;;;;;1.53;1.43;;;5.10;97.30;;;;;;4981519;28;20484;-92
2022/09/30 03:23:04;;;;;;;1.80;1.70;;;5.00;97.30;;;;;;5026017;28;20426;-91
2022/09/30 03:25:50;;;;;;;2.50;1.73;;;5.00;97.30;;;;;;5034613;28;20417;-91
2022/09/30 03:28:53;;;;;;;3.33;2.57;;;5.00;97.30;;;;;;5034635;28;20479;-92
2022/09/30 03:31:26;;;;;;;1.83;1.70;;;5.00;97.30;;;;;;5033219;28;20440;-92
2022/09/30 03:34:17;;;;;;;3.63;2.60;;;5.00;97.30;;;;;;5022998;28;20558;-91
2022/09/30 03:37:01;;;;;;;2.77;2.30;;;5.00;97.30;;;;;;5034845;28;20442;-91
2022/09/30 03:39:56;;;;;;;4.80;2.60;;;5.00;97.30;;;;;;5034932;28;20739;-92
2022/09/30 03:42:45;;;;;;;2.73;2.53;;;5.00;97.30;;;;;;5034467;28;20413;-93
2022/09/30 03:45:27;;;;;;;5.53;1.73;;;5.00;97.30;;;;;;5023124;28;20452;-91
2022/09/30 03:48:00;;;;;;;3.90;3.47;;;4.90;97.30;;;;;;5034745;28;20476;-91
2022/09/30 03:50:28;;;;;;;7.70;3.10;;;4.90;97.30;;;;;;5034405;28;20454;-91
2022/09/30 03:52:57;;;;;;;2.73;1.90;;;4.90;97.30;;;;;;5034288;28;20416;-91
2022/09/30 03:55:26;;;;;;;3.00;1.93;;;4.90;97.30;;;;;;5034078;28;20427;-92
2022/09/30 03:57:56;;;;;;;6.10;4.43;;;4.90;97.30;;;;;;5034076;28;20484;-92
2022/09/30 04:00:27;;;;;;;3.47;2.33;;;4.90;97.30;;;;;;5032572;28;20491;-91
2022/09/30 04:02:55;;;;;;;2.20;2.00;;;4.90;97.30;;;;;;5050790;28;20428;-92
2022/09/30 04:05:25;;;;;;;1.90;1.60;;;4.90;97.30;;;;;;5033466;28;20413;-92
2022/09/30 04:07:56;;;;;;;3.80;2.50;;;4.90;97.30;;;;;;5032352;28;20475;-92
2022/09/30 04:10:24;;;;;;;1.70;1.60;;;4.90;97.30;;;;;;5027525;28;20533;-92
2022/09/30 04:12:59;;;;;;;1.70;1.60;;;5.00;97.30;;;;;;5033163;28;20441;-91
2022/09/30 04:15:27;;;;;;;2.33;1.70;;;5.00;97.30;;;;;;5032855;28;20420;-91
2022/09/30 04:17:53;;;;;;;2.80;2.60;;;5.00;97.30;;;;;;5033936;28;20412;-91
2022/09/30 04:20:18;;;;;;;2.93;2.73;;;4.90;97.30;;;;;;5033776;28;20518;-91
2022/09/30 04:22:46;;;;;;;2.20;2.00;;;4.90;97.30;;;;;;5034375;28;20181;-91
2022/09/30 04:25:12;;;;;;;1.90;1.80;;;4.90;97.30;;;;;;5037074;28;21138;-92
2022/09/30 04:27:37;;;;;;;8.37;1.70;;;4.90;97.30;;;;;;5037032;28;20471;-93
2022/09/30 04:30:06;;;;;;;3.17;2.10;;;4.90;97.30;;;;;;5027920;28;20273;-94
2022/09/30 04:32:59;;;;;;;2.33;2.10;;;4.90;97.30;;;;;;5024721;28;20200;-93
2022/09/30 04:35:28;;;;;;;1.60;1.50;;;4.90;97.30;;;;;;5032472;28;20422;-93
2022/09/30 04:37:56;;;;;;;4.30;2.07;;;4.90;97.30;;;;;;5033769;28;20416;-92
2022/09/30 04:40:38;;;;;;;6.40;2.80;;;4.90;97.30;;;;;;5027594;28;20524;-93
2022/09/30 04:43:08;;;;;;;2.43;1.97;;;4.90;97.30;;;;;;5057447;28;20488;-93
2022/09/30 04:45:37;;;;;;;3.93;3.37;;;4.90;97.30;;;;;;5035330;28;20488;-96
2022/09/30 04:48:06;;;;;;;5.43;2.93;;;4.90;97.30;;;;;;5041689;28;20456;-94
2022/09/30 04:50:39;;;;;;;1.80;1.70;;;4.90;97.30;;;;;;5025674;28;20518;-92
2022/09/30 04:53:07;;;;;;;2.70;2.27;;;4.80;97.30;;;;;;5036975;28;20466;-94
2022/09/30 04:55:33;;;;;;;7.17;2.40;;;4.80;97.30;;;;;;5036812;28;20424;-92
2022/09/30 04:57:59;;;;;;;2.53;2.33;;;4.80;97.30;;;;;;5037296;28;20428;-93
2022/09/30 05:00:26;;;;;;;2.53;2.23;;;4.80;97.30;;;;;;5035544;28;20456;-92
2022/09/30 05:02:57;;;;;;;6.97;3.47;;;4.80;97.30;;;;;;5034567;28;20166;-92
2022/09/30 05:05:27;;;;;;;2.93;2.77;;;4.70;97.30;;;;;;5035732;28;20420;-92
2022/09/30 05:07:55;;;;;;;3.90;2.90;;;4.70;97.30;;;;;;5035740;28;20835;-93
2022/09/30 05:10:28;;;;;;;3.60;2.27;;;4.70;97.30;;;;;;5035793;28;20439;-93
2022/09/30 05:12:57;;;;;;;4.07;2.40;;;4.70;97.30;;;;;;5036137;28;20424;-92
2022/09/30 05:15:26;;;;;;;1.90;1.80;;;4.70;97.30;;;;;;5035958;28;20431;-92
2022/09/30 05:17:57;;;;;;;1.93;1.90;;;4.70;97.30;;;;;;5037387;28;20507;-92
2022/09/30 05:20:25;;;;;;;2.07;1.93;;;4.70;97.30;;;;;;5036744;28;20456;-92
2022/09/30 05:22:56;;;;;;;2.83;2.47;;;4.70;97.30;;;;;;5037055;28;20416;-92
2022/09/30 05:25:24;;;;;;;9.23;3.17;;;4.70;97.30;;;;;;5036888;28;20448;-93
2022/09/30 05:27:50;;;;;;;3.80;3.00;;;4.70;97.30;;;;;;5036375;28;20464;-93
2022/09/30 05:30:18;;;;;;;3.50;2.77;;;4.70;97.30;;;;;;5036452;28;20521;-92
2022/09/30 05:32:46;;;;;;;2.00;1.90;;;4.70;97.30;;;;;;5036794;28;20174;-93
2022/09/30 05:35:17;;;;;;;1.53;1.43;;;4.70;97.30;;;;;;5033128;28;20416;-93
2022/09/30 05:37:50;;;;;;;2.47;2.27;;;4.70;97.30;;;;;;5027236;28;20451;-92
2022/09/30 05:40:15;;;;;;;2.00;1.90;;;4.70;97.30;;;;;;5036151;28;20460;-93
2022/09/30 05:42:46;;;;;;;2.70;2.33;;;4.70;97.30;;;;;;5036394;28;20419;-92
2022/09/30 05:45:19;;;;;;;4.80;3.33;;;4.70;97.30;;;;;;5035619;28;20447;-93
2022/09/30 05:47:53;;;;;;;3.87;2.83;;;4.70;97.30;;;;;;5035916;28;20463;-93
2022/09/30 05:50:20;;;;;;;2.40;2.20;;;4.70;97.30;;;;;;5036629;28;20753;-93
2022/09/30 05:52:46;;;;;;;2.60;2.30;;;4.70;97.30;;;;;;5035543;28;20542;-93
2022/09/30 05:55:18;;;;;;;2.57;2.43;;;4.70;97.30;;;;;;5036292;28;20448;-93
2022/09/30 05:57:48;;;;;;;6.53;2.80;;;4.80;97.30;;;;;;5035345;28;20428;-94
2022/09/30 06:00:16;;;;;;;4.10;3.07;;;4.80;97.30;;;;;;5035403;28;20486;-93
2022/09/30 06:02:42;;;;;;;4.30;2.77;;;4.80;97.30;;;;;;5035688;28;20471;-93
2022/09/30 06:05:08;;;;;;;10.23;1.87;;;4.90;97.30;;;;;;5035473;28;20423;-93
2022/09/30 06:07:37;;;;;;;2.90;2.70;;;4.90;97.30;;;;;;5034762;28;20221;-94
2022/09/30 06:10:09;;;;;;;2.40;2.07;;;5.00;97.30;;;;;;5034349;28;20421;-93
2022/09/30 06:12:37;;;;;;;2.73;2.53;;;5.00;97.30;;;;;;5035142;28;20459;-92
2022/09/30 06:15:17;;;;;;;3.60;3.40;;;5.00;97.30;;;;;;5034662;28;20427;-93
2022/09/30 06:17:50;;;;;;;2.80;2.50;;;5.10;97.30;;;;;;5023097;28;20450;-93
2022/09/30 06:20:18;;;;;;;2.23;1.87;;;5.10;97.30;;;;;;5033550;28;20569;-93
2022/09/30 06:22:46;;;;;;;2.30;2.10;;;5.20;97.30;;;;;;5034124;28;20416;-92
2022/09/30 06:25:14;;;;;;;5.43;4.50;;;5.20;97.30;;;;;;5032810;28;20444;-93
2022/09/30 06:27:46;;;;;;;5.27;3.80;;;5.30;97.30;;;;;;5033795;28;20446;-93
2022/09/30 06:30:28;;;;;;;5.77;4.93;;;5.40;97.30;;;;;;5032694;28;20456;-93
2022/09/30 06:32:56;;;;;;;3.03;2.83;;;5.40;97.30;;;;;;5031678;28;20440;-93
2022/09/30 06:35:29;;;;;;;7.47;4.40;;;5.50;97.30;;;;;;5030400;28;20425;-93
2022/09/30 06:37:57;;;;;;;4.73;2.73;;;5.60;97.30;;;;;;5029306;28;20420;-92
2022/09/30 06:40:28;;;;;;;9.23;2.60;;;5.60;97.30;;;;;;5028384;28;20439;-93
2022/09/30 06:42:58;;;;;;;3.50;2.33;;;5.80;97.30;;;;;;5015526;28;20496;-93
2022/09/30 06:45:24;;;;;;;3.10;2.90;;;5.80;97.30;;;;;;5015585;28;20429;-92
2022/09/30 06:47:50;;;;;;;2.83;2.00;;;6.00;97.30;;;;;;5024000;28;20460;-93
2022/09/30 06:50:18;;;;;;;2.80;2.27;;;6.00;97.30;;;;;;5026392;28;20436;-93
2022/09/30 06:52:46;;;;;;;4.77;2.67;;;6.10;97.30;;;;;;5022991;28;20177;-92
2022/09/30 06:55:12;;;;;;;4.30;2.90;;;6.20;97.30;;;;;;5022287;28;20434;-93
2022/09/30 06:57:39;;;;;;;7.20;2.80;;;6.30;97.30;;;;;;5019097;28;20507;-92
2022/09/30 07:00:08;;;;;;;3.03;2.37;;;6.40;97.30;;;;;;5017566;28;20448;-93
2022/09/30 07:02:35;;;;;;;4.10;3.60;;;6.50;97.30;;;;;;5002704;28;20427;-91
2022/09/30 07:05:02;;;;;;;7.80;3.77;;;6.60;97.30;;;;;;5011802;28;20424;-90
2022/09/30 07:07:28;;;;;;;3.87;3.67;;;6.70;97.30;;;;;;5011890;28;20432;-91
2022/09/30 07:09:54;;;;;;;1.77;1.67;;;6.80;97.30;;;;;;5011168;28;20439;-92
2022/09/30 07:12:19;;;;;;;7.53;3.20;;;6.90;97.30;;;;;;5011593;28;20698;-91
2022/09/30 07:14:47;;;;;;;6.83;2.80;;;7.10;97.30;;;;;;5011376;28;20419;-91
2022/09/30 07:17:15;;;;;;;2.97;2.77;;;7.20;97.30;;;;;;5011438;28;20177;-91
2022/09/30 07:19:40;;;;;;;3.00;2.77;;;7.30;97.30;;;;;;5011414;28;20487;-91
2022/09/30 07:24:50;;;;;;;2.70;1.93;;;7.70;97.30;;;;;;5012379;28;20247;-91
2022/09/30 07:27:15;;;;;;;7.67;3.53;;;7.80;97.30;;;;;;5011289;28;20424;-91
2022/09/30 07:29:43;;;;;;;2.60;2.47;;;7.90;97.30;;;;;;5010970;28;20271;-90
2022/09/30 07:32:09;;;;;;;4.37;3.90;;;8.00;97.30;;;;;;5012412;28;20211;-90
2022/09/30 07:34:35;;;;;;;5.60;3.30;;;8.10;97.30;;;;;;5011658;28;20412;-91
2022/09/30 07:37:02;;;;;;;5.53;4.03;;;8.20;97.30;;;;;;5011501;28;20400;-90
2022/09/30 07:39:28;;;;;;;2.83;2.60;;;8.30;97.30;;;;;;5009413;28;20479;-91
2022/09/30 07:41:54;;;;;;;3.60;3.40;;;8.40;97.30;;;;;;5009811;28;20459;-91
2022/09/30 07:44:20;;;;;;;10.37;4.40;;;8.50;97.30;;;;;;5009896;28;20185;-90
2022/09/30 07:46:47;;;;;;;7.30;5.10;;;8.60;97.30;;;;;;5010061;28;20216;-91
2022/09/30 07:49:23;;;;;;;2.13;2.00;;;8.70;97.30;;;;;;5009617;28;20523;-91
2022/09/30 07:51:54;;;;;;;5.10;4.20;;;8.90;97.30;;;;;;5011156;28;20419;-91
2022/09/30 07:54:22;;;;;;;8.00;4.63;;;9.00;97.30;;;;;;5010737;28;20938;-92
2022/09/30 07:56:49;;;;;;;2.90;2.70;;;9.10;97.30;;;;;;5009899;28;20420;-91
2022/09/30 07:59:16;;;;;;;2.67;2.20;;;9.20;97.30;;;;;;5015084;28;20971;-91
2022/09/30 08:01:44;;;;;;;11.10;3.47;;;9.30;97.30;;;;;;5003829;28;20425;-92
2022/09/30 08:04:11;;;;;;;7.33;4.07;;;9.40;97.30;;;;;;5010874;28;20518;-92
2022/09/30 08:06:40;;;;;;;4.13;2.73;;;9.50;97.30;;;;;;5014426;28;20416;-92
2022/09/30 08:09:06;;;;;;;4.47;2.27;;;9.60;97.30;;;;;;5013272;28;20460;-92
2022/09/30 08:11:43;;;;;;;;;;;;;;;;;;;;;
2022/09/30 08:14:14;;;;;;;4.60;3.03;;;9.80;97.30;;;;;;5014304;28;20400;-91
2022/09/30 08:16:40;;;;;;;2.80;2.50;;;9.90;97.30;;;;;;5005616;28;20417;-91
2022/09/30 08:19:06;;;;;;;10.90;4.70;;;9.90;97.30;;;;;;5005914;28;20431;-91
2022/09/30 08:21:32;;;;;;;5.17;4.17;;;9.90;97.30;;;;;;5013741;28;20420;-92
2022/09/30 08:23:57;;;;;;;4.20;3.97;;;10.00;97.30;;;;;;5014313;28;20416;-92
2022/09/30 08:26:23;;;;;;;3.23;2.60;;;10.10;97.30;;;;;;5009080;28;20228;-92
2022/09/30 08:28:49;;;;;;;7.30;4.67;;;10.20;97.30;;;;;;5005017;28;20863;-92
2022/09/30 08:31:20;;;;;;;5.47;4.20;;;10.20;97.30;;;;;;5014115;28;20420;-91
2022/09/30 08:33:46;;;;;;;6.10;2.93;;;10.30;97.30;;;;;;5013701;28;20193;-91
2022/09/30 08:36:18;;;;;;;4.93;4.03;;;10.30;97.30;;;;;;5013405;28;20425;-90
2022/09/30 08:38:43;;;;;;;3.47;2.17;;;10.40;97.30;;;;;;5012854;28;20267;-91
2022/09/30 08:41:15;;;;;;;3.23;1.90;;;10.40;97.30;;;;;;5013492;28;20420;-91
2022/09/30 08:43:55;;;;;;;6.10;3.97;;;10.50;97.30;;;;;;5014466;28;20654;-91
2022/09/30 08:46:48;;;;;;;4.57;4.27;;;10.50;97.30;;;;;;5005194;28;20482;-91
2022/09/30 08:49:32;;;;;;;4.37;3.20;;;10.60;97.30;;;;;;5011917;28;20459;-91
2022/09/30 08:52:00;;;;;;;6.50;2.70;;;10.70;97.30;;;;;;5031823;28;20871;-91
2022/09/30 08:54:30;;;;;;;6.90;3.10;;;10.70;97.30;;;;;;5012121;28;20837;-92
2022/09/30 08:56:56;;;;;;;4.47;2.87;;;10.80;97.30;;;;;;5011798;28;20432;-90
2022/09/30 08:59:39;;;;;;;2.60;2.03;;;10.90;97.30;;;;;;5011715;28;20474;-92
2022/09/30 09:02:26;;;;;;;4.93;4.27;;;11.00;97.30;;;;;;5011941;28;20443;-91
2022/09/30 09:04:56;;;;;;;3.73;3.07;;;11.20;97.30;;;;;;5012827;28;20428;-91
2022/09/30 09:07:39;;;;;;;5.40;3.17;;;11.30;97.30;;;;;;5011961;28;20420;-92
2022/09/30 09:10:32;;;;;;;2.67;1.90;;;11.50;97.30;;;;;;5010991;28;20831;-92
2022/09/30 09:13:15;;;;;;;1.67;1.57;;;11.60;97.30;;;;;;5011695;28;20418;-92
2022/09/30 09:16:04;;;;;;;5.67;3.00;;;11.80;97.30;;;;;;5044761;28;20424;-91
2022/09/30 09:18:30;;;;;;;4.70;3.03;;;11.90;97.30;;;;;;5011397;28;20427;-90
2022/09/30 09:20:59;;;;;;;14.60;3.47;;;12.00;97.30;;;;;;5037421;28;20465;-92
2022/09/30 09:23:26;;;;;;;2.07;1.93;;;12.10;97.30;;;;;;5006280;28;20189;-92
2022/09/30 09:25:54;;;;;;;2.93;2.23;;;12.20;97.30;;;;;;5011612;28;20793;-90
2022/09/30 09:28:47;;;;;;;8.27;2.30;;;12.40;97.30;;;;;;5010869;28;20866;-91
2022/09/30 09:31:17;;;;;;;5.93;2.63;;;12.50;97.30;;;;;;5032028;28;20523;-92
2022/09/30 09:33:42;;;;;;;5.40;3.07;;;12.70;97.30;;;;;;5010579;28;20416;-92
2022/09/30 09:36:42;;;;;;;3.07;2.27;;;12.80;97.30;;;;;;5011317;28;20431;-92
2022/09/30 09:39:45;;;;;;;2.50;2.30;;;13.00;97.30;;;;;;5019696;28;20305;-92
2022/09/30 09:42:26;;;;;;;3.63;2.20;;;13.20;97.30;;;;;;5001800;28;20416;-92
2022/09/30 09:44:52;;;;;;;4.90;3.47;;;13.30;97.30;;;;;;5014025;28;21028;-91
2022/09/30 09:47:18;;;;;;;4.63;2.60;;;13.50;97.30;;;;;;5012548;28;20432;-91
2022/09/30 09:50:04;;;;;;;2.20;2.00;;;13.60;97.30;;;;;;5011702;28;21007;-91
2022/09/30 09:53:09;;;;;;;2.83;2.30;;;13.70;97.30;;;;;;5014334;28;20482;-92
2022/09/30 09:55:36;;;;;;;5.20;2.17;;;13.90;97.30;;;;;;5013299;28;20978;-92
2022/09/30 09:58:09;;;;;;;2.07;1.93;;;13.90;97.30;;;;;;5013056;28;20510;-91
2022/09/30 10:03:23;;;;;;;4.70;2.83;;;14.20;97.30;;;;;;5014982;28;20410;-92
2022/09/30 10:06:03;;;;;;;3.17;2.27;;;14.30;97.30;;;;;;5013896;28;20466;-91
2022/09/30 10:08:31;;;;;;;2.67;2.47;;;14.40;97.30;;;;;;5013966;28;20452;-92
2022/09/30 10:10:58;;;;;;;3.83;2.57;;;14.50;97.30;;;;;;5034145;28;20446;-92
2022/09/30 10:13:29;;;;;;;2.73;1.50;;;14.60;97.30;;;;;;5014612;28;20713;-92
2022/09/30 10:16:00;;;;;;;10.30;2.50;;;14.60;97.30;;;;;;5014729;28;20416;-92
2022/09/30 10:19:30;;;;;;;3.70;2.23;;;14.70;97.30;;;;;;5013535;28;20416;-91
2022/09/30 10:21:39;;;;;;;2.63;1.70;;;14.80;97.30;;;;;;5021817;28;20451;-91
2022/09/30 10:24:30;;;;;;;2.60;1.97;;;15.00;97.30;;;;;;5014069;28;20412;-91
2022/09/30 10:26:59;;;;;;;2.83;2.33;;;15.10;96.80;;;;;;5041092;28;20412;-89
2022/09/30 10:30:28;;;;;;;;;;;;;;;;;;;;;
2022/09/30 10:32:40;;;;;;;2.00;1.67;;;15.30;96.60;;;;;;5005076;28;20814;-93
2022/09/30 10:35:59;;;;;;;1.93;1.30;;;15.40;96.80;;;;;;5012150;28;20420;-92
2022/09/30 10:45:30;;;;;;;1.73;1.70;;;15.70;94.40;;;;;;4947109;28;20432;-89
2022/09/30 10:48:10;;;;;;;2.73;2.53;;;15.80;93.70;;;;;;5007888;28;20491;-89
2022/09/30 10:50:39;;;;;;;3.70;2.13;;;15.90;94.00;;;;;;4997578;28;20486;-89
2022/09/30 10:53:39;;;;;;;2.20;1.50;;;16.00;94.20;;;;;;5011328;28;20420;-91
2022/09/30 10:56:19;;;;;;;2.47;1.70;;;16.10;93.30;;;;;;5007501;28;20421;-92
2022/09/30 10:59:15;;;;;;;2.30;2.10;;;16.20;92.60;;;;;;5011017;28;20444;-91
2022/09/30 11:05:30;;;;;;;2.30;1.80;;;16.30;92.30;;;;;;4969287;28;20655;-91
2022/09/30 11:12:28;;;;;;;1.53;1.43;;;16.50;92.00;;;;;;5025500;28;20415;-91
2022/09/30 11:15:29;;;;;;;2.30;1.60;;;16.60;90.50;;;;;;5018875;28;20812;-92
2022/09/30 11:18:10;;;;;;;1.77;1.40;;;16.80;90.30;;;;;;4959697;28;20964;-90
2022/09/30 11:28:01;;;;;;;4.23;1.63;;;17.00;88.70;;;;;;5007191;28;20428;-90
2022/09/30 11:30:58;;;;;;;1.83;1.50;;;17.20;89.30;;;;;;4988665;28;20463;-92
2022/09/30 11:33:51;;;;;;;1.30;1.10;;;17.30;89.50;;;;;;5010378;28;20783;-90
2022/09/30 11:40:51;;;;;;;2.43;2.03;;;17.50;87.50;;;;;;4988358;28;20420;-87
2022/09/30 11:43:51;;;;;;;2.43;1.77;;;17.60;86.40;;;;;;4968158;28;20418;-87
2022/09/30 11:47:20;;;;;;;1.47;1.40;;;17.70;87.20;;;;;;4988234;28;20435;-88
2022/09/30 11:53:09;;;;;;;2.20;2.00;;;17.90;86.60;;;;;;5003657;28;20413;-92
2022/09/30 12:10:01;;;;;;;3.03;2.27;;;18.40;84.40;;;;;;4941586;28;20646;-92
2022/09/30 12:13:29;;;;;;;2.50;1.73;;;18.50;85.50;;;;;;4987511;28;20507;-86
2022/09/30 12:16:21;;;;;;;1.27;1.17;;;18.70;84.70;;;;;;4972701;28;20431;-90
2022/09/30 12:30:41;;;;;;;5.17;1.87;;;19.10;82.70;;;;;;5025079;28;20495;-91
2022/09/30 12:33:26;;;;;;;1.57;1.43;;;19.20;83.50;;;;;;4981674;28;20424;-91
2022/09/30 12:36:09;;;;;;;1.20;1.10;;;19.30;84.00;;;;;;5040098;28;20416;-88
2022/09/30 12:39:06;;;;;;;1.87;1.40;;;19.30;84.10;;;;;;5021476;28;20501;-91
2022/09/30 12:42:18;;;;;;;2.30;1.70;;;19.40;84.40;;;;;;5013874;28;20475;-90
2022/09/30 12:45:29;;;;;;;1.40;1.30;;;19.40;84.10;;;;;;5045510;28;20435;-90
2022/09/30 12:48:39;;;;;;;1.43;1.33;;;19.10;82.00;;;;;;5032233;28;20427;-89
2022/09/30 12:55:08;;;;;;;1.40;1.30;;;19.10;82.80;;;;;;5031332;28;20447;-90
2022/09/30 12:57:50;;;;;;;2.60;1.70;;;19.20;84.00;;;;;;5021280;28;20423;-90
2022/09/30 13:00:40;;;;;;;3.90;1.93;;;19.10;82.50;;;;;;5031995;28;20815;-89
2022/09/30 13:03:16;;;;;;;2.07;1.93;;;19.00;83.00;;;;;;5031463;28;20546;-90
2022/09/30 13:05:50;;;;;;;3.00;1.60;;;18.80;83.10;;;;;;5026387;28;20505;-91
2022/09/30 13:08:18;;;;;;;4.63;1.90;;;18.70;83.30;;;;;;5031190;28;20459;-91
2022/09/30 13:10:51;;;;;;;2.90;1.63;;;18.40;83.70;;;;;;5031291;28;20904;-91
2022/09/30 13:13:31;;;;;;;1.53;1.50;;;18.40;84.80;;;;;;5026843;28;20948;-92
2022/09/30 13:16:06;;;;;;;4.13;2.40;;;18.50;85.00;;;;;;5028646;28;20541;-88
2022/09/30 13:18:31;;;;;;;4.80;1.70;;;18.50;84.70;;;;;;5023227;28;20512;-90
2022/09/30 13:21:18;;;;;;;1.13;1.10;;;18.40;83.70;;;;;;5046457;28;20455;-91
2022/09/30 13:23:44;;;;;;;1.37;1.27;;;18.20;84.90;;;;;;5043391;28;20246;-90
2022/09/30 13:26:30;;;;;;;6.47;2.07;;;18.30;85.30;;;;;;5031338;28;20486;-91
2022/09/30 13:29:16;;;;;;;3.93;1.30;;;18.60;84.70;;;;;;5047908;28;20225;-90
2022/09/30 13:31:44;;;;;;;1.50;1.33;;;18.90;85.00;;;;;;5028891;28;20411;-91
2022/09/30 13:34:20;;;;;;;3.43;2.30;;;19.10;82.70;;;;;;5022661;28;20427;-91
2022/09/30 13:36:51;;;;;;;1.30;1.30;;;19.30;83.30;;;;;;5032518;28;20432;-89
2022/09/30 13:39:39;;;;;;;1.57;1.40;;;19.50;83.00;;;;;;5029627;28;20488;-89
2022/09/30 13:42:25;;;;;;;1.30;1.27;;;19.40;80.90;;;;;;5031422;28;20922;-90
2022/09/30 13:45:15;;;;;;;1.40;1.30;;;19.10;81.70;;;;;;5030314;28;20419;-85
2022/09/30 13:47:46;;;;;;;1.97;1.63;;;19.10;82.00;;;;;;5030877;28;20442;-89
2022/09/30 13:50:22;;;;;;;3.47;1.93;;;19.40;82.20;;;;;;5041214;28;21040;-89
2022/09/30 13:52:56;;;;;;;3.63;1.83;;;19.60;82.00;;;;;;5034416;28;20422;-88
2022/09/30 13:55:39;;;;;;;5.27;1.70;;;19.90;81.50;;;;;;5028576;28;20807;-90
2022/09/30 13:58:34;;;;;;;2.00;1.90;;;20.10;81.30;;;;;;5019687;28;20504;-89
2022/09/30 14:01:28;;;;;;;3.53;3.00;;;20.20;81.10;;;;;;5027272;28;20424;-89
2022/09/30 14:04:13;;;;;;;1.63;1.53;;;20.30;80.00;;;;;;5025976;28;20424;-89
2022/09/30 14:07:11;;;;;;;2.07;1.50;;;20.40;79.50;;;;;;5092405;27;20809;-90
2022/09/30 14:09:51;;;;;;;1.53;1.53;;;20.20;79.50;;;;;;5084635;28;20447;-90
2022/09/30 14:12:49;;;;;;;1.43;1.00;;;20.30;80.60;;;;;;5078601;28;20927;-87
2022/09/30 14:16:00;;;;;;;1.10;1.00;;;20.50;80.30;;;;;;5090372;28;20783;-88
2022/09/30 14:18:54;;;;;;;3.77;2.00;;;20.80;80.60;;;;;;5084467;28;20425;-89
2022/09/30 14:21:42;;;;;;;2.60;2.20;;;21.10;79.30;;;;;;5077811;28;20507;-89
2022/09/30 14:24:15;;;;;;;1.60;1.27;;;21.30;78.90;;;;;;5099153;28;20504;-88
2022/09/30 14:27:19;;;;;;;2.70;1.60;;;21.10;77.90;;;;;;5080405;28;20456;-89
2022/09/30 14:30:00;;;;;;;2.60;1.83;;;20.70;78.60;;;;;;5082098;28;20432;-90
2022/09/30 14:32:29;;;;;;;3.70;1.40;;;20.60;78.30;;;;;;5096171;28;20403;-90
2022/09/30 14:34:57;;;;;;;2.10;1.77;;;20.70;78.10;;;;;;5081485;28;20492;-90
2022/09/30 14:37:31;;;;;;;2.40;2.20;;;20.70;77.70;;;;;;5089211;28;20452;-90
2022/09/30 14:39:57;;;;;;;2.20;2.00;;;20.80;78.30;;;;;;5090417;28;20456;-92
2022/09/30 14:42:29;;;;;;;1.87;1.83;;;20.90;78.70;;;;;;5091528;28;20424;-90
2022/09/30 14:45:03;;;;;;;3.13;2.73;;;21.10;78.10;;;;;;5092451;28;20478;-90
2022/09/30 14:47:37;;;;;;;2.03;1.73;;;21.20;78.50;;;;;;5089919;28;20447;-90
2022/09/30 14:50:10;;;;;;;2.10;1.70;;;21.10;78.70;;;;;;5089730;28;20425;-90